METAR Data
IDs: Format: Raw Decoded Include TAF

Data at: 0320 UTC 25 Jan 2020

PPIT 250256Z AUTO 36016KT 10SM CLR M23/M26 A3007 RMK AO2 SLP187 T12281256 50000 FZRANO TSNO
PPIT 250156Z AUTO 34015KT 10SM CLR M22/M25 A3007 RMK AO2 SLP187 T12221250 FZRANO TSNO
PPIT 242356Z AUTO 36012KT 10SM CLR M22/M25 A3007 RMK AO2 SLP187 T12221250 11222 21244 58014 FZRANO TSNO
PPIT 242256Z AUTO 36013KT 10SM CLR M23/M26 A3009 RMK AO2 SLP194 T12281256 FZRANO TSNO
PPIT 242156Z AUTO 35013KT 10SM CLR M23/M26 A3011 RMK AO2 SLP199 T12331261 FZRANO TSNO
PPIT 242056Z AUTO 35014KT 10SM CLR M24/M27 A3011 RMK AO2 SLP201 T12391267 51005 FZRANO TSNO
PPIT 241956Z AUTO 35017KT 10SM CLR M24/M27 A3011 RMK AO2 SLP200 T12391267 FZRANO TSNO
PPIT 241656Z AUTO 34017KT 10SM CLR M23/M26 A3010 RMK AO2 SLP197 T12331256 FZRANO TSNO
PPIT 241556Z AUTO 34017KT 10SM CLR M23/M25 A3009 RMK AO2 SLP195 T12281250 FZRANO TSNO
PPIT 241456Z AUTO 34016KT 10SM CLR M23/M24 A3009 RMK AO2 SNE25 SLP193 P0000 60000 T12281244 56009 FZRANO TSNO
PPIT 241356Z AUTO 35014KT 7SM -SN CLR M22/M24 A3010 RMK AO2 SLP195 P0000 T12221239 FZRANO TSNO
PPIT 241256Z AUTO 35017KT 5SM -SN BR CLR M21/M23 A3010 RMK AO2 SNB51 SLP198 P0000 T12111228 FZRANO TSNO
PPIT 241156Z AUTO 35015KT 10SM CLR M21/M22 A3012 RMK AO2 SLP203 60000 T12111222 11172 21211 58002 FZRANO TSNO
PPIT 241056Z AUTO 36016KT 10SM CLR M20/M22 A3013 RMK AO2 SNE17 SLP206 P0000 T12001217 FZRANO TSNO
PPIT 240956Z AUTO 35015KT 7SM -SN CLR M19/M21 A3013 RMK AO2 SNE23B46 SLP207 P0000 T11941206 FZRANO TSNO
PPIT 240756Z AUTO 35014KT 10SM CLR M19/M20 A3012 RMK AO2 SNE48 SLP204 P0000 T11891200 FZRANO TSNO
PPIT 240656Z AUTO 35013KT 9SM -SN CLR M18/M20 A3013 RMK AO2 SNB47 SLP207 P0000 T11831200 FZRANO TSNO
PPIT 240556Z AUTO 35016KT 10SM OVC040 M17/M18 A3013 RMK AO2 SNE46 SLP207 P0000 60000 T11721183 11161 21194 58001 FZRANO TSNO
PPIT 240456Z AUTO 32012KT 9SM -SN OVC032 M18/M19 A3013 RMK AO2 SNB43 SLP208 P0000 T11781189 FZRANO TSNO
PPIT 240356Z AUTO 32010KT 10SM OVC032 M19/M21 A3014 RMK AO2 SLP209 T11941206 FZRANO TSNO
PPIT 240256Z AUTO 33011KT 10SM OVC030 M19/M20 A3013 RMK AO2 SNE49 SLP208 P0000 60000 T11891200 53004 FZRANO TSNO
PPIT 240231Z AUTO 33012KT 3SM -SN BR FEW028 M18/M19 A3013 RMK AO2 P0000 FZRANO TSNO
PPIT 240210Z AUTO 33012KT 2SM -SN BR CLR M17/M19 A3013 RMK AO2 P0000 FZRANO TSNO
PPIT 240156Z AUTO 34013KT 1 3/4SM -SN BR FEW028 M17/M18 A3012 RMK AO2 SLP205 P0000 T11671183 FZRANO TSNO
PPIT 240141Z AUTO 33015KT 1 1/2SM -SN BR SCT002 BKN028 M17/M18 A3012 RMK AO2 P0000 FZRANO TSNO
PPIT 240122Z AUTO 34015KT 1 1/4SM -SN BR OVC002 M17/M18 A3012 RMK AO2 P0000 FZRANO TSNO
PPIT 240115Z AUTO 34016KT 3/4SM -SN BR OVC002 M16/M18 A3012 RMK AO2 P0000 FZRANO TSNO
PPIT 240056Z AUTO 35017KT 3/4SM -SN BR BKN004 OVC030 M16/M18 A3012 RMK AO2 SLP204 P0000 T11611178 FZRANO TSNO
PPIT 240042Z AUTO 34018KT 3/4SM -SN BR FEW002 OVC030 M16/M17 A3012 RMK AO2 P0000 FZRANO TSNO
PPIT 240034Z AUTO 34016KT 1SM -SN BR OVC030 M16/M17 A3012 RMK AO2 P0000 FZRANO TSNO
PPIT 240014Z AUTO 34018KT 1 1/2SM -SN BR OVC030 M15/M17 A3012 RMK AO2 P0000 FZRANO TSNO
PPIT 240004Z AUTO 34017KT 2SM -SN BR OVC030 M15/M16 A3012 RMK AO2 P0000 FZRANO TSNO
PPIT 232356Z AUTO 34019KT 3SM -SN BR OVC030 M14/M16 A3012 RMK AO2 SNB11 SLP203 P0000 60000 T11441161 11144 21161 50001 FZRANO TSNO
PPIT 232256Z AUTO 34010KT 10SM OVC030 M14/M16 A3013 RMK AO2 SNE18 SLP206 P0000 T11441161 FZRANO TSNO
PPIT 232213Z AUTO 34009KT 9SM -SN SCT012 OVC028 M15/M17 A3012 RMK AO2 P0000 FZRANO TSNO
PPIT 232156Z AUTO 33010KT 9SM -SN OVC012 M15/M17 A3012 RMK AO2 SNB47 SLP203 P0000 T11501167 FZRANO TSNO
PPIT 232056Z AUTO 34007KT 10SM OVC014 M15/M17 A3012 RMK AO2 SLP202 60000 T11501167 53014 FZRANO TSNO
PPIT 231956Z AUTO 35007KT 10SM OVC014 M16/M17 A3010 RMK AO2 SNE24 SLP196 P0000 T11561172 FZRANO TSNO
PPIT 231856Z AUTO 34010KT 9SM -SN OVC014 M16/M17 A3008 RMK AO2 SNE18B34 SLP190 P0000 T11561172 FZRANO TSNO
PPIT 231831Z AUTO 34013KT 10SM OVC014 M16/M17 A3008 RMK AO2 SNE18 P0000 FZRANO TSNO
PPIT 231756Z AUTO 34009KT 9SM -SN OVC016 M16/M18 A3007 RMK AO2 SNB12 SLP188 P0000 60000 T11611178 11156 21189 53007 FZRANO TSNO
PPIT 231656Z AUTO 32010KT 10SM OVC016 M18/M19 A3006 RMK AO2 SLP185 T11781194 FZRANO TSNO
PPIT 231617Z AUTO 31009KT 10SM OVC016 M18/M19 A3006 RMK AO2 FZRANO TSNO
PPIT 231556Z AUTO 33010KT 10SM OVC014 M18/M19 A3006 RMK AO2 SLP182 T11781189 FZRANO TSNO